Main page
METAR-TAF:

METAR-TAF

Airports :

Griffiss International Airport

Rome, New York, United States

latitude: 43-14N, longitude: 075-24W, elevation: 154 m

Current weather observation

The report was made 39 minutes ago, at 12:53 UTC
Wind 6 kt from the West
Temperature 27°C
Humidity 74%
Pressure 1026 hPa
Visibility: 16.1 km
Few clouds at a height of 2100 ft

METAR: KRME 201253Z 27006KT 10SM FEW021 27/22 A3031 RMK AO2 SLP257 T02670222

Time: 09:32 (13:32 UTC)

Forecast

The report was made 2 hours and 12 minutes ago, at 11:20 UTC
Forecast valid from 20 at 12 UTC to 21 at 12 UTC
Wind 3 kt from variable directions
Visibility: 10 km
Scattered clouds at a height of 20000 ft
From 20 at 1800 UTC
Wind 6 kt from the West
Visibility: 10 km
Broken clouds at a height of 10000 ft
From 21 at 0300 UTC
Wind 3 kt from variable directions
Visibility: 10 km
Broken clouds at a height of 10000 ft

TAF: KRME 201120Z 2012/2112 VRB03KT P6SM SCT200 FM201800 28006KT P6SM BKN100 FM210300 VRB03KT P6SM BKN100

Weather observations and forecasts of more than 4000 airports (METAR and TAF reports).

The available stations are represented by yellow and red dots on the map.

Hover mouse over dot to see the name of the station.

Then click to see weather observations and forecasts.

To change the map : click on the green buttons with a black cross to zoom in, on the green button with a dash to zoom out, or on the green arrows for adjacent maps.


METAR-TAF: